Archival Weather

Dallas-Fort Worth Intl

Dallas-Fort Worth, Texas (KDFW)

Report from: Thursday, September 21, 2023 8:53 PM CDT
Current time: Sunday, February 25, 2024 3:49 PM CST

Current weather – Weather history – Daily summaries
Weather forecast

Temperature26.1°C (79.0°F)
Dew point21.1°C (70.0°F)
Winds 5 kts (2.6 m/s, 5.8 mph) North (10°)
Visibility10 mi. (16.1 km)
Clouds Few clouds 5,000 ft. (1,524 m)
Few clouds 18,000 ft. (5,486 m)
Scattered clouds 25,000 ft. (7,620 m)
Altimeter29.94 in.Hg (1014 mB)
Relative humidity74 %
Density altitude1,632 ft. (497 m)
Sea-level pressure101.3 kPa (1013 mB, 29.91 in.Hg)
Remarks Automated weather observing station with precipitation discriminator
Flight conditions Visual Meteorological Conditions
Raw dataKDFW 220153Z 01005KT 10SM FEW050 FEW180 SCT250 26/21 A2994 RMK AO2 SLP129 T02610211
An error has occurred. This application may no longer respond until reloaded. Reload 🗙